Terminal Aerodrome Forecast
Issued by NWS Sioux Falls, SD

Home | Current Version | Previous Version | Text Only | Print | Product List | Glossary On
Versions: 1 2 3 4 5 6 7 8 9 10 11 12
000
FTUS43 KFSD 011720
TAFFSD
TAF
KFSD 011720Z 0118/0218 22012KT P6SM SCT120 BKN250
     FM012000 20012G20KT P6SM SCT050 SCT120
     FM020300 23008KT P6SM SCT100
     FM021000 26006KT P6SM SKC
     FM021500 33013KT P6SM SKC=

USA.gov is the U.S. government's official web portal to all federal, state and local government web resources and services.